sensor_id;sensor_type;location;lat;lon;timestamp;pressure;altitude;pressure_sealevel;temperature;humidity
58467;BME280;44255;49.244;7.726;2023-03-21T04:30:59;98446.84;;;-0.76;83.20
58467;BME280;44255;49.244;7.726;2023-03-21T04:33:25;98449.50;;;-0.76;82.86
58467;BME280;44255;49.244;7.726;2023-03-21T04:35:51;98442.47;;;-0.77;83.05
58467;BME280;44255;49.244;7.726;2023-03-21T04:38:22;98438.97;;;-0.79;83.19
58467;BME280;44255;49.244;7.726;2023-03-21T04:40:48;98442.25;;;-0.67;82.70
58467;BME280;44255;49.244;7.726;2023-03-21T04:43:13;98445.88;;;-0.71;82.75
58467;BME280;44255;49.244;7.726;2023-03-21T04:45:38;98439.06;;;-0.83;83.05
58467;BME280;44255;49.244;7.726;2023-03-21T04:48:04;98435.09;;;-0.62;82.79
58467;BME280;44255;49.244;7.726;2023-03-21T04:50:29;98431.81;;;-0.74;82.51
58467;BME280;44255;49.244;7.726;2023-03-21T04:52:56;98439.09;;;-0.85;82.73
58467;BME280;44255;49.244;7.726;2023-03-21T04:55:22;98437.53;;;-0.94;82.22
58467;BME280;44255;49.244;7.726;2023-03-21T04:57:49;98440.66;;;-0.75;81.83
58467;BME280;44255;49.244;7.726;2023-03-21T05:00:14;98435.88;;;-0.99;82.59
58467;BME280;44255;49.244;7.726;2023-03-21T05:02:40;98451.81;;;-0.62;81.39
58467;BME280;44255;49.244;7.726;2023-03-21T05:05:06;98435.41;;;-1.20;83.73
58467;BME280;44255;49.244;7.726;2023-03-21T05:07:35;98435.25;;;-1.11;83.66
58467;BME280;44255;49.244;7.726;2023-03-21T05:10:01;98441.38;;;-1.09;84.17
58467;BME280;44255;49.244;7.726;2023-03-21T05:12:26;98443.19;;;-1.11;83.80
58467;BME280;44255;49.244;7.726;2023-03-21T05:14:51;98439.81;;;-1.19;83.76
58467;BME280;44255;49.244;7.726;2023-03-21T05:17:16;98432.56;;;-1.09;83.98
58467;BME280;44255;49.244;7.726;2023-03-21T05:19:47;98436.22;;;-1.15;83.88
58467;BME280;44255;49.244;7.726;2023-03-21T05:22:15;98439.75;;;-1.16;84.20
58467;BME280;44255;49.244;7.726;2023-03-21T05:24:44;98433.91;;;-1.32;84.94
58467;BME280;44255;49.244;7.726;2023-03-21T05:27:17;98427.31;;;-1.55;85.87
58467;BME280;44255;49.244;7.726;2023-03-21T05:30:07;98433.75;;;-1.26;85.69
58467;BME280;44255;49.244;7.726;2023-03-21T05:32:33;98428.59;;;-1.32;84.59
58467;BME280;44255;49.244;7.726;2023-03-21T05:34:59;98426.75;;;-1.27;84.42
58467;BME280;44255;49.244;7.726;2023-03-21T05:37:25;98427.38;;;-1.14;84.45
58467;BME280;44255;49.244;7.726;2023-03-21T05:39:50;98430.03;;;-1.15;84.90
58467;BME280;44255;49.244;7.726;2023-03-21T05:42:16;98431.78;;;-1.13;84.18
58467;BME280;44255;49.244;7.726;2023-03-21T05:44:43;98433.38;;;-1.06;84.31
58467;BME280;44255;49.244;7.726;2023-03-21T05:47:08;98436.91;;;-1.05;83.78
58467;BME280;44255;49.244;7.726;2023-03-21T05:49:34;98434.19;;;-1.04;83.57
58467;BME280;44255;49.244;7.726;2023-03-21T05:51:59;98434.72;;;-0.86;83.04
58467;BME280;44255;49.244;7.726;2023-03-21T05:54:24;98435.19;;;-1.09;83.47
58467;BME280;44255;49.244;7.726;2023-03-21T05:56:50;98439.63;;;-1.10;83.48
58467;BME280;44255;49.244;7.726;2023-03-21T05:59:15;98443.13;;;-1.08;84.00
58467;BME280;44255;49.244;7.726;2023-03-21T06:01:41;98438.63;;;-1.04;84.39
58467;BME280;44255;49.244;7.726;2023-03-21T06:04:06;98436.16;;;-1.12;84.32
58467;BME280;44255;49.244;7.726;2023-03-21T06:06:31;98435.41;;;-1.19;84.89
58467;BME280;44255;49.244;7.726;2023-03-21T06:08:57;98436.00;;;-1.04;85.52
58467;BME280;44255;49.244;7.726;2023-03-21T06:11:25;98433.53;;;-0.71;83.73
58467;BME280;44255;49.244;7.726;2023-03-21T06:13:51;98420.88;;;-0.58;82.84
58467;BME280;44255;49.244;7.726;2023-03-21T06:16:16;98429.75;;;-0.61;82.99
58467;BME280;44255;49.244;7.726;2023-03-21T06:18:41;98421.84;;;-0.62;83.21
58467;BME280;44255;49.244;7.726;2023-03-21T06:21:06;98425.34;;;-0.62;83.47
58467;BME280;44255;49.244;7.726;2023-03-21T06:23:32;98429.91;;;-0.68;82.97
58467;BME280;44255;49.244;7.726;2023-03-21T06:25:57;98427.31;;;-0.32;81.24
58467;BME280;44255;49.244;7.726;2023-03-21T06:28:22;98427.09;;;-0.23;80.68
58467;BME280;44255;49.244;7.726;2023-03-21T06:30:47;98428.28;;;-0.35;80.94
58467;BME280;44255;49.244;7.726;2023-03-21T06:33:13;98428.53;;;-0.46;82.32
58467;BME280;44255;49.244;7.726;2023-03-21T06:35:38;98430.13;;;-0.38;82.89
58467;BME280;44255;49.244;7.726;2023-03-21T06:38:03;98430.88;;;-0.33;82.82
58467;BME280;44255;49.244;7.726;2023-03-21T06:40:29;98432.03;;;-0.07;82.09
58467;BME280;44255;49.244;7.726;2023-03-21T06:42:54;98436.75;;;-0.20;81.87
58467;BME280;44255;49.244;7.726;2023-03-21T06:45:19;98432.69;;;0.01;81.86
58467;BME280;44255;49.244;7.726;2023-03-21T06:47:45;98432.53;;;0.42;78.75
58467;BME280;44255;49.244;7.726;2023-03-21T06:50:10;98434.41;;;0.04;80.39
58467;BME280;44255;49.244;7.726;2023-03-21T06:52:36;98442.25;;;0.08;80.63
58467;BME280;44255;49.244;7.726;2023-03-21T06:55:01;98433.41;;;0.08;80.46
58467;BME280;44255;49.244;7.726;2023-03-21T06:57:26;98434.16;;;0.13;81.42
58467;BME280;44255;49.244;7.726;2023-03-21T06:59:51;98428.09;;;0.09;81.43
58467;BME280;44255;49.244;7.726;2023-03-21T07:02:17;98428.66;;;0.21;80.71
58467;BME280;44255;49.244;7.726;2023-03-21T07:04:42;98437.56;;;0.18;80.69
58467;BME280;44255;49.244;7.726;2023-03-21T07:07:07;98424.53;;;0.10;80.77
58467;BME280;44255;49.244;7.726;2023-03-21T07:09:33;98422.38;;;0.25;79.98
58467;BME280;44255;49.244;7.726;2023-03-21T07:11:58;98427.69;;;0.25;80.54
58467;BME280;44255;49.244;7.726;2023-03-21T07:14:23;98424.69;;;0.71;78.92
58467;BME280;44255;49.244;7.726;2023-03-21T07:16:49;98430.78;;;0.41;79.62
58467;BME280;44255;49.244;7.726;2023-03-21T07:19:15;98426.41;;;0.40;80.13
58467;BME280;44255;49.244;7.726;2023-03-21T07:21:40;98425.44;;;0.43;80.74
58467;BME280;44255;49.244;7.726;2023-03-21T07:24:05;98421.13;;;0.72;79.77
58467;BME280;44255;49.244;7.726;2023-03-21T07:26:31;98416.97;;;0.94;78.94
58467;BME280;44255;49.244;7.726;2023-03-21T07:28:56;98417.97;;;0.90;78.65
58467;BME280;44255;49.244;7.726;2023-03-21T07:31:21;98421.03;;;1.06;78.40
58467;BME280;44255;49.244;7.726;2023-03-21T07:33:50;98420.25;;;1.03;79.74
58467;BME280;44255;49.244;7.726;2023-03-21T07:36:15;98420.38;;;0.98;79.55
58467;BME280;44255;49.244;7.726;2023-03-21T07:38:42;98429.22;;;0.99;79.79
58467;BME280;44255;49.244;7.726;2023-03-21T07:41:07;98426.66;;;0.95;79.24
58467;BME280;44255;49.244;7.726;2023-03-21T07:43:33;98420.22;;;1.04;79.99
58467;BME280;44255;49.244;7.726;2023-03-21T07:45:58;98414.34;;;1.23;79.81
58467;BME280;44255;49.244;7.726;2023-03-21T07:48:24;98414.75;;;1.39;78.81
58467;BME280;44255;49.244;7.726;2023-03-21T07:50:49;98417.66;;;1.60;78.65
58467;BME280;44255;49.244;7.726;2023-03-21T07:53:14;98415.63;;;1.68;77.31
58467;BME280;44255;49.244;7.726;2023-03-21T07:55:40;98424.00;;;1.82;76.16
58467;BME280;44255;49.244;7.726;2023-03-21T07:58:05;98416.50;;;1.95;75.55
58467;BME280;44255;49.244;7.726;2023-03-21T08:00:31;98426.19;;;1.96;75.82
58467;BME280;44255;49.244;7.726;2023-03-21T08:02:56;98420.75;;;2.01;74.89
58467;BME280;44255;49.244;7.726;2023-03-21T08:05:32;98421.44;;;2.06;73.40
58467;BME280;44255;49.244;7.726;2023-03-21T08:07:59;98426.75;;;2.33;72.23
58467;BME280;44255;49.244;7.726;2023-03-21T08:10:24;98425.66;;;2.39;72.41
58467;BME280;44255;49.244;7.726;2023-03-21T08:12:50;98434.00;;;2.55;71.70
58467;BME280;44255;49.244;7.726;2023-03-21T08:15:15;98421.03;;;2.46;70.38
58467;BME280;44255;49.244;7.726;2023-03-21T08:17:41;98431.44;;;2.52;69.35
58467;BME280;44255;49.244;7.726;2023-03-21T08:20:11;98422.50;;;2.55;70.41
58467;BME280;44255;49.244;7.726;2023-03-21T08:22:37;98421.38;;;2.60;70.49
58467;BME280;44255;49.244;7.726;2023-03-21T08:25:04;98423.03;;;2.64;69.22
58467;BME280;44255;49.244;7.726;2023-03-21T08:27:31;98423.34;;;2.80;68.83
58467;BME280;44255;49.244;7.726;2023-03-21T08:29:57;98425.16;;;2.80;68.87
58467;BME280;44255;49.244;7.726;2023-03-21T08:32:22;98423.16;;;2.85;68.58
58467;BME280;44255;49.244;7.726;2023-03-21T08:35:02;98428.59;;;2.82;68.24
58467;BME280;44255;49.244;7.726;2023-03-21T08:37:28;98426.63;;;2.87;68.91
58467;BME280;44255;49.244;7.726;2023-03-21T08:39:54;98419.84;;;3.02;69.00
58467;BME280;44255;49.244;7.726;2023-03-21T08:42:20;98424.09;;;3.08;66.69
58467;BME280;44255;49.244;7.726;2023-03-21T08:44:47;98424.25;;;3.03;66.56
58467;BME280;44255;49.244;7.726;2023-03-21T08:47:12;98421.84;;;2.97;66.25
58467;BME280;44255;49.244;7.726;2023-03-21T08:49:38;98425.44;;;2.96;65.29
58467;BME280;44255;49.244;7.726;2023-03-21T08:52:03;98426.91;;;3.03;65.60
58467;BME280;44255;49.244;7.726;2023-03-21T08:54:30;98426.97;;;3.26;65.62
58467;BME280;44255;49.244;7.726;2023-03-21T08:56:56;98419.81;;;3.50;65.39
58467;BME280;44255;49.244;7.726;2023-03-21T08:59:21;98420.72;;;3.50;65.25
58467;BME280;44255;49.244;7.726;2023-03-21T09:01:46;98417.34;;;3.67;65.28
58467;BME280;44255;49.244;7.726;2023-03-21T09:04:12;98415.63;;;3.66;65.44
58467;BME280;44255;49.244;7.726;2023-03-21T09:06:40;98412.63;;;3.52;64.00
58467;BME280;44255;49.244;7.726;2023-03-21T09:09:10;98403.72;;;3.53;64.38
58467;BME280;44255;49.244;7.726;2023-03-21T09:11:35;98400.88;;;3.58;64.49
58467;BME280;44255;49.244;7.726;2023-03-21T09:14:00;98406.94;;;3.84;64.13
58467;BME280;44255;49.244;7.726;2023-03-21T09:16:26;98399.34;;;3.95;64.51
58467;BME280;44255;49.244;7.726;2023-03-21T09:18:52;98404.47;;;4.01;63.81
58467;BME280;44255;49.244;7.726;2023-03-21T09:21:20;98404.16;;;3.87;64.59
58467;BME280;44255;49.244;7.726;2023-03-21T09:23:47;98410.66;;;4.02;62.19
58467;BME280;44255;49.244;7.726;2023-03-21T09:26:19;98416.72;;;3.83;62.94
58467;BME280;44255;49.244;7.726;2023-03-21T09:28:46;98397.75;;;3.91;62.66
58467;BME280;44255;49.244;7.726;2023-03-21T09:31:13;98396.75;;;3.93;63.32
58467;BME280;44255;49.244;7.726;2023-03-21T09:33:43;98394.59;;;4.03;62.67
58467;BME280;44255;49.244;7.726;2023-03-21T09:36:09;98400.59;;;3.86;62.88
58467;BME280;44255;49.244;7.726;2023-03-21T09:38:38;98400.75;;;4.05;62.41
58467;BME280;44255;49.244;7.726;2023-03-21T09:44:13;98403.13;;;4.12;62.74
58467;BME280;44255;49.244;7.726;2023-03-21T09:49:18;98406.88;;;4.07;61.49
58467;BME280;44255;49.244;7.726;2023-03-21T09:51:46;98398.28;;;4.21;62.06
58467;BME280;44255;49.244;7.726;2023-03-21T09:54:22;98398.03;;;4.28;61.55
58467;BME280;44255;49.244;7.726;2023-03-21T09:56:52;98401.25;;;4.14;61.15
58467;BME280;44255;49.244;7.726;2023-03-21T09:59:33;98392.91;;;4.01;61.84
58467;BME280;44255;49.244;7.726;2023-03-21T10:05:18;98390.06;;;4.26;61.25
58467;BME280;44255;49.244;7.726;2023-03-21T10:07:49;98388.19;;;4.49;60.69
58467;BME280;44255;49.244;7.726;2023-03-21T10:10:21;98387.66;;;4.61;60.18
58467;BME280;44255;49.244;7.726;2023-03-21T10:12:49;98384.16;;;4.80;61.24
58467;BME280;44255;49.244;7.726;2023-03-21T10:15:19;98381.00;;;5.10;60.36
58467;BME280;44255;49.244;7.726;2023-03-21T10:17:56;98368.03;;;5.21;59.82
58467;BME280;44255;49.244;7.726;2023-03-21T10:20:30;98381.22;;;5.25;59.21
58467;BME280;44255;49.244;7.726;2023-03-21T10:22:58;98381.00;;;5.10;57.27
58467;BME280;44255;49.244;7.726;2023-03-21T10:25:47;98385.72;;;5.05;57.32
58467;BME280;44255;49.244;7.726;2023-03-21T10:28:17;98376.66;;;5.07;57.88
58467;BME280;44255;49.244;7.726;2023-03-21T10:33:19;98369.50;;;4.89;57.67
58467;BME280;44255;49.244;7.726;2023-03-21T10:35:50;98367.22;;;5.19;57.67
58467;BME280;44255;49.244;7.726;2023-03-21T10:38:19;98363.78;;;5.35;56.66
58467;BME280;44255;49.244;7.726;2023-03-21T10:40:45;98361.22;;;5.53;56.31
58467;BME280;44255;49.244;7.726;2023-03-21T10:43:20;98362.03;;;5.55;56.23
58467;BME280;44255;49.244;7.726;2023-03-21T10:45:54;98367.25;;;5.75;55.57
58467;BME280;44255;49.244;7.726;2023-03-21T10:48:21;98357.50;;;5.92;55.68
58467;BME280;44255;49.244;7.726;2023-03-21T10:50:56;98357.09;;;5.82;54.97
58467;BME280;44255;49.244;7.726;2023-03-21T10:53:27;98344.78;;;5.60;55.61
58467;BME280;44255;49.244;7.726;2023-03-21T10:55:56;98352.56;;;6.02;54.06
58467;BME280;44255;49.244;7.726;2023-03-21T10:58:34;98344.53;;;6.02;53.54
58467;BME280;44255;49.244;7.726;2023-03-21T11:01:06;98340.66;;;6.25;53.94
58467;BME280;44255;49.244;7.726;2023-03-21T11:08:28;98339.69;;;6.44;52.81
58467;BME280;44255;49.244;7.726;2023-03-21T11:11:08;98338.94;;;6.06;53.40
58467;BME280;44255;49.244;7.726;2023-03-21T11:13:42;98335.81;;;6.49;52.47
58467;BME280;44255;49.244;7.726;2023-03-21T11:18:40;98328.25;;;6.91;52.56
58467;BME280;44255;49.244;7.726;2023-03-21T11:21:08;98325.75;;;7.20;51.08
58467;BME280;44255;49.244;7.726;2023-03-21T11:23:38;98331.88;;;6.90;51.10
58467;BME280;44255;49.244;7.726;2023-03-21T11:26:09;98327.03;;;6.97;51.24
58467;BME280;44255;49.244;7.726;2023-03-21T11:28:37;98316.00;;;7.03;49.75
58467;BME280;44255;49.244;7.726;2023-03-21T11:31:04;98317.03;;;7.17;50.13
58467;BME280;44255;49.244;7.726;2023-03-21T11:33:34;98313.53;;;7.63;50.31
58467;BME280;44255;49.244;7.726;2023-03-21T11:36:24;98315.56;;;7.11;49.51
58467;BME280;44255;49.244;7.726;2023-03-21T11:39:13;98314.41;;;6.83;49.32
58467;BME280;44255;49.244;7.726;2023-03-21T11:41:39;98310.19;;;6.95;49.30
58467;BME280;44255;49.244;7.726;2023-03-21T11:44:04;98309.00;;;7.17;49.67
58467;BME280;44255;49.244;7.726;2023-03-21T11:46:30;98302.50;;;6.89;49.64
58467;BME280;44255;49.244;7.726;2023-03-21T11:48:57;98302.06;;;7.13;49.60
58467;BME280;44255;49.244;7.726;2023-03-21T11:51:40;98296.34;;;7.03;50.03
58467;BME280;44255;49.244;7.726;2023-03-21T11:56:46;98298.16;;;7.18;49.63
58467;BME280;44255;49.244;7.726;2023-03-21T11:59:42;98298.78;;;7.24;48.70
58467;BME280;44255;49.244;7.726;2023-03-21T12:02:38;98292.63;;;7.21;47.98
58467;BME280;44255;49.244;7.726;2023-03-21T12:05:16;98283.13;;;7.32;48.06
58467;BME280;44255;49.244;7.726;2023-03-21T12:10:31;98298.00;;;6.89;48.48
58467;BME280;44255;49.244;7.726;2023-03-21T12:15:59;98276.25;;;6.62;49.06
58467;BME280;44255;49.244;7.726;2023-03-21T12:18:45;98275.53;;;6.76;48.86
58467;BME280;44255;49.244;7.726;2023-03-21T12:21:19;98265.16;;;6.86;47.87
58467;BME280;44255;49.244;7.726;2023-03-21T12:24:09;98273.13;;;7.03;48.60
58467;BME280;44255;49.244;7.726;2023-03-21T12:32:09;98257.88;;;6.72;50.38
58467;BME280;44255;49.244;7.726;2023-03-21T12:35:01;98254.34;;;6.71;49.64
58467;BME280;44255;49.244;7.726;2023-03-21T12:37:43;98259.88;;;6.34;50.93
58467;BME280;44255;49.244;7.726;2023-03-21T12:42:55;98256.00;;;6.06;52.19
58467;BME280;44255;49.244;7.726;2023-03-21T12:45:28;98253.59;;;6.18;52.81
58467;BME280;44255;49.244;7.726;2023-03-21T12:48:01;98247.81;;;6.10;52.88
58467;BME280;44255;49.244;7.726;2023-03-21T12:50:30;98248.94;;;6.05;53.99
58467;BME280;44255;49.244;7.726;2023-03-21T12:53:25;98252.56;;;5.87;56.22
58467;BME280;44255;49.244;7.726;2023-03-21T12:55:52;98246.75;;;5.78;56.94
58467;BME280;44255;49.244;7.726;2023-03-21T12:58:22;98251.75;;;5.85;58.26
58467;BME280;44255;49.244;7.726;2023-03-21T13:00:52;98257.78;;;5.72;60.10
58467;BME280;44255;49.244;7.726;2023-03-21T13:03:23;98252.94;;;5.44;60.57
58467;BME280;44255;49.244;7.726;2023-03-21T13:05:54;98256.50;;;5.44;61.83
58467;BME280;44255;49.244;7.726;2023-03-21T13:08:38;98264.91;;;5.54;63.21
58467;BME280;44255;49.244;7.726;2023-03-21T13:11:07;98261.69;;;5.47;61.25
58467;BME280;44255;49.244;7.726;2023-03-21T13:16:05;98261.69;;;5.83;64.39
58467;BME280;44255;49.244;7.726;2023-03-21T13:18:58;98251.06;;;5.99;64.44
58467;BME280;44255;49.244;7.726;2023-03-21T13:21:45;98248.88;;;5.72;63.48
58467;BME280;44255;49.244;7.726;2023-03-21T13:24:32;98244.16;;;5.59;63.36
58467;BME280;44255;49.244;7.726;2023-03-21T13:27:06;98243.22;;;5.96;65.17
58467;BME280;44255;49.244;7.726;2023-03-21T13:29:52;98235.28;;;5.76;63.93
58467;BME280;44255;49.244;7.726;2023-03-21T13:32:35;98224.75;;;6.07;64.94
58467;BME280;44255;49.244;7.726;2023-03-21T13:37:34;98214.19;;;6.37;61.94
58467;BME280;44255;49.244;7.726;2023-03-21T13:40:06;98200.84;;;6.54;62.71
58467;BME280;44255;49.244;7.726;2023-03-21T13:42:43;98209.41;;;6.11;62.13
58467;BME280;44255;49.244;7.726;2023-03-21T13:45:21;98207.81;;;6.24;62.53
58467;BME280;44255;49.244;7.726;2023-03-21T13:48:03;98207.50;;;6.13;63.41
58467;BME280;44255;49.244;7.726;2023-03-21T13:53:10;98192.88;;;6.52;61.91
58467;BME280;44255;49.244;7.726;2023-03-21T13:55:45;98188.78;;;6.78;59.68
58467;BME280;44255;49.244;7.726;2023-03-21T14:01:39;98193.59;;;6.40;59.93
58467;BME280;44255;49.244;7.726;2023-03-21T14:04:16;98185.56;;;6.40;61.30
58467;BME280;44255;49.244;7.726;2023-03-21T14:09:32;98182.25;;;6.34;61.76
58467;BME280;44255;49.244;7.726;2023-03-21T14:12:02;98168.53;;;6.41;60.30
58467;BME280;44255;49.244;7.726;2023-03-21T14:14:40;98168.19;;;6.31;62.48
58467;BME280;44255;49.244;7.726;2023-03-21T14:17:21;98166.19;;;6.18;59.80
58467;BME280;44255;49.244;7.726;2023-03-21T14:19:51;98165.72;;;5.94;60.85
58467;BME280;44255;49.244;7.726;2023-03-21T14:22:17;98172.00;;;5.93;59.82
58467;BME280;44255;49.244;7.726;2023-03-21T14:24:55;98160.38;;;6.10;60.17
58467;BME280;44255;49.244;7.726;2023-03-21T14:27:22;98166.44;;;6.14;59.63
58467;BME280;44255;49.244;7.726;2023-03-21T14:29:49;98160.00;;;6.00;58.95
58467;BME280;44255;49.244;7.726;2023-03-21T14:32:21;98158.47;;;6.12;60.11
58467;BME280;44255;49.244;7.726;2023-03-21T14:34:48;98169.28;;;6.11;60.01
58467;BME280;44255;49.244;7.726;2023-03-21T14:37:26;98168.03;;;6.00;59.09
58467;BME280;44255;49.244;7.726;2023-03-21T14:39:57;98172.13;;;6.07;59.99
58467;BME280;44255;49.244;7.726;2023-03-21T14:42:24;98169.56;;;6.22;59.74
58467;BME280;44255;49.244;7.726;2023-03-21T14:44:49;98157.84;;;6.41;58.84
58467;BME280;44255;49.244;7.726;2023-03-21T14:47:23;98146.78;;;6.47;57.79
58467;BME280;44255;49.244;7.726;2023-03-21T14:49:49;98139.69;;;6.46;57.86
58467;BME280;44255;49.244;7.726;2023-03-21T14:52:24;98141.16;;;6.51;58.88
58467;BME280;44255;49.244;7.726;2023-03-21T14:54:51;98148.09;;;6.40;59.44
58467;BME280;44255;49.244;7.726;2023-03-21T14:57:20;98145.56;;;6.53;59.88
58467;BME280;44255;49.244;7.726;2023-03-21T14:59:49;98134.25;;;6.63;59.11
58467;BME280;44255;49.244;7.726;2023-03-21T15:02:36;98132.97;;;6.55;58.74
58467;BME280;44255;49.244;7.726;2023-03-21T15:07:52;98134.00;;;6.68;56.57
58467;BME280;44255;49.244;7.726;2023-03-21T15:10:18;98142.97;;;6.35;56.87
58467;BME280;44255;49.244;7.726;2023-03-21T15:12:57;98136.69;;;6.36;57.49
58467;BME280;44255;49.244;7.726;2023-03-21T15:15:25;98133.19;;;6.18;59.28
58467;BME280;44255;49.244;7.726;2023-03-21T15:17:52;98130.22;;;6.56;57.11
58467;BME280;44255;49.244;7.726;2023-03-21T15:20:21;98125.78;;;6.39;57.22
58467;BME280;44255;49.244;7.726;2023-03-21T15:22:51;98115.19;;;6.54;58.20
58467;BME280;44255;49.244;7.726;2023-03-21T15:25:26;98115.50;;;6.63;58.69
58467;BME280;44255;49.244;7.726;2023-03-21T15:27:53;98113.53;;;6.67;58.12
58467;BME280;44255;49.244;7.726;2023-03-21T15:30:22;98108.84;;;6.71;58.68
58467;BME280;44255;49.244;7.726;2023-03-21T15:32:48;98112.22;;;6.90;58.60
58467;BME280;44255;49.244;7.726;2023-03-21T15:35:17;98115.34;;;6.83;58.02
58467;BME280;44255;49.244;7.726;2023-03-21T15:37:51;98107.91;;;6.72;56.68
58467;BME280;44255;49.244;7.726;2023-03-21T15:40:26;98110.66;;;6.86;58.08
58467;BME280;44255;49.244;7.726;2023-03-21T15:43:16;98108.94;;;6.85;57.90
58467;BME280;44255;49.244;7.726;2023-03-21T15:45:50;98105.59;;;6.82;57.54
58467;BME280;44255;49.244;7.726;2023-03-21T15:48:16;98111.28;;;7.06;56.58
58467;BME280;44255;49.244;7.726;2023-03-21T15:53:19;98117.59;;;6.58;56.98
58467;BME280;44255;49.244;7.726;2023-03-21T15:55:50;98123.63;;;6.62;56.87
58467;BME280;44255;49.244;7.726;2023-03-21T15:58:21;98127.16;;;6.62;57.15
58467;BME280;44255;49.244;7.726;2023-03-21T16:00:52;98128.72;;;6.34;57.38
58467;BME280;44255;49.244;7.726;2023-03-21T16:03:24;98119.84;;;6.34;57.51
58467;BME280;44255;49.244;7.726;2023-03-21T16:06:22;98133.06;;;6.21;57.37
58467;BME280;44255;49.244;7.726;2023-03-21T16:08:54;98128.28;;;6.10;56.82
58467;BME280;44255;49.244;7.726;2023-03-21T16:11:28;98131.47;;;6.17;55.96
58467;BME280;44255;49.244;7.726;2023-03-21T16:14:00;98132.44;;;6.16;55.93
58467;BME280;44255;49.244;7.726;2023-03-21T16:16:27;98128.28;;;6.42;56.33
58467;BME280;44255;49.244;7.726;2023-03-21T16:18:54;98122.09;;;6.42;55.20
58467;BME280;44255;49.244;7.726;2023-03-21T16:21:23;98119.56;;;6.55;54.86
58467;BME280;44255;49.244;7.726;2023-03-21T16:23:50;98124.75;;;6.10;56.14
58467;BME280;44255;49.244;7.726;2023-03-21T16:26:18;98120.09;;;6.29;56.20
58467;BME280;44255;49.244;7.726;2023-03-21T16:28:44;98112.00;;;6.31;56.53
58467;BME280;44255;49.244;7.726;2023-03-21T16:31:17;98111.81;;;6.34;56.70
58467;BME280;44255;49.244;7.726;2023-03-21T16:33:43;98116.03;;;6.38;56.65
58467;BME280;44255;49.244;7.726;2023-03-21T16:36:17;98113.63;;;6.17;56.95
58467;BME280;44255;49.244;7.726;2023-03-21T16:38:47;98115.44;;;6.33;56.51
58467;BME280;44255;49.244;7.726;2023-03-21T16:41:14;98116.56;;;6.45;56.46
58467;BME280;44255;49.244;7.726;2023-03-21T16:43:40;98118.19;;;6.31;57.49
58467;BME280;44255;49.244;7.726;2023-03-21T16:46:17;98114.03;;;6.26;58.07
58467;BME280;44255;49.244;7.726;2023-03-21T16:48:46;98113.88;;;6.29;57.41
58467;BME280;44255;49.244;7.726;2023-03-21T16:51:16;98123.63;;;6.14;58.31
58467;BME280;44255;49.244;7.726;2023-03-21T16:53:43;98128.81;;;6.17;58.33
58467;BME280;44255;49.244;7.726;2023-03-21T16:56:30;98129.91;;;5.97;59.24
58467;BME280;44255;49.244;7.726;2023-03-21T16:58:54;98120.94;;;6.14;58.70
58467;BME280;44255;49.244;7.726;2023-03-21T17:01:21;98118.78;;;6.04;59.58
58467;BME280;44255;49.244;7.726;2023-03-21T17:03:50;98117.63;;;5.92;59.30
58467;BME280;44255;49.244;7.726;2023-03-21T17:06:17;98120.16;;;5.96;59.83
58467;BME280;44255;49.244;7.726;2023-03-21T17:08:43;98120.41;;;5.91;59.97
58467;BME280;44255;49.244;7.726;2023-03-21T17:11:10;98118.00;;;6.02;59.96
58467;BME280;44255;49.244;7.726;2023-03-21T17:13:36;98113.03;;;5.78;60.24
58467;BME280;44255;49.244;7.726;2023-03-21T17:16:02;98118.16;;;5.83;61.08
58467;BME280;44255;49.244;7.726;2023-03-21T17:18:27;98114.34;;;5.87;61.41
58467;BME280;44255;49.244;7.726;2023-03-21T17:20:53;98122.97;;;5.76;61.43
58467;BME280;44255;49.244;7.726;2023-03-21T17:23:18;98120.31;;;5.92;62.19
58467;BME280;44255;49.244;7.726;2023-03-21T17:25:44;98117.19;;;5.84;62.11
58467;BME280;44255;49.244;7.726;2023-03-21T17:28:09;98118.03;;;5.85;61.92
58467;BME280;44255;49.244;7.726;2023-03-21T17:30:35;98113.75;;;5.82;62.92
58467;BME280;44255;49.244;7.726;2023-03-21T17:33:02;98108.84;;;5.90;63.48
58467;BME280;44255;49.244;7.726;2023-03-21T17:35:28;98107.88;;;5.75;63.44
58467;BME280;44255;49.244;7.726;2023-03-21T17:37:53;98113.09;;;5.61;63.51
58467;BME280;44255;49.244;7.726;2023-03-21T17:40:25;98112.78;;;5.49;63.22
58467;BME280;44255;49.244;7.726;2023-03-21T17:42:51;98113.69;;;5.66;62.30
58467;BME280;44255;49.244;7.726;2023-03-21T17:45:18;98115.19;;;5.72;62.61
58467;BME280;44255;49.244;7.726;2023-03-21T17:47:43;98123.47;;;5.32;64.26
58467;BME280;44255;49.244;7.726;2023-03-21T17:50:23;98116.88;;;5.39;63.67
58467;BME280;44255;49.244;7.726;2023-03-21T17:52:49;98121.91;;;5.45;63.21
58467;BME280;44255;49.244;7.726;2023-03-21T17:55:15;98116.50;;;5.29;63.96
58467;BME280;44255;49.244;7.726;2023-03-21T17:57:46;98117.03;;;5.18;65.82
58467;BME280;44255;49.244;7.726;2023-03-21T18:00:18;98113.72;;;5.31;65.99
58467;BME280;44255;49.244;7.726;2023-03-21T18:02:45;98118.69;;;5.03;67.67
58467;BME280;44255;49.244;7.726;2023-03-21T18:05:10;98125.69;;;5.06;65.96
58467;BME280;44255;49.244;7.726;2023-03-21T18:07:35;98128.34;;;5.23;66.87
58467;BME280;44255;49.244;7.726;2023-03-21T18:10:01;98138.47;;;4.82;68.08
58467;BME280;44255;49.244;7.726;2023-03-21T18:12:26;98137.28;;;4.87;67.98
58467;BME280;44255;49.244;7.726;2023-03-21T18:14:52;98139.97;;;4.87;68.02
58467;BME280;44255;49.244;7.726;2023-03-21T18:17:17;98140.63;;;4.73;69.83
58467;BME280;44255;49.244;7.726;2023-03-21T18:19:44;98148.41;;;4.78;69.80
58467;BME280;44255;49.244;7.726;2023-03-21T18:22:09;98143.94;;;4.78;68.88
58467;BME280;44255;49.244;7.726;2023-03-21T18:24:35;98144.97;;;4.76;69.42
58467;BME280;44255;49.244;7.726;2023-03-21T18:27:01;98146.38;;;4.46;70.37
58467;BME280;44255;49.244;7.726;2023-03-21T18:29:26;98156.97;;;4.48;70.29
58467;BME280;44255;49.244;7.726;2023-03-21T18:31:53;98152.22;;;4.16;71.97
58467;BME280;44255;49.244;7.726;2023-03-21T18:34:18;98144.66;;;4.26;72.28
58467;BME280;44255;49.244;7.726;2023-03-21T18:36:43;98145.56;;;4.06;72.80
58467;BME280;44255;49.244;7.726;2023-03-21T18:39:09;98151.94;;;4.22;72.58
58467;BME280;44255;49.244;7.726;2023-03-21T18:41:34;98157.06;;;4.08;72.85
58467;BME280;44255;49.244;7.726;2023-03-21T18:43:59;98155.72;;;3.98;73.95
58467;BME280;44255;49.244;7.726;2023-03-21T18:46:25;98158.88;;;3.87;74.09